Time;durP1;ratioP1;P1;durP2;ratioP2;P2;SDS_P1;SDS_P2;PMS_P1;PMS_P2;Temp;Humidity;BMP_temperature;BMP_pressure;BME280_temperature;BME280_humidity;BME280_pressure;Samples;Min_cycle;Max_cycle;Signal;HPM_P1;HPM_P2
2023/10/09 00:02:09;;;;;;;6.57;2.90;;;15.30;75.20;;;;;;5041791;28;20180;-89
2023/10/09 00:04:36;;;;;;;7.28;3.65;;;15.40;75.20;;;;;;5028332;28;20401;-89
2023/10/09 00:07:03;;;;;;;7.07;3.38;;;15.40;75.30;;;;;;5071644;28;20178;-89
2023/10/09 00:09:32;;;;;;;6.90;4.07;;;15.40;75.30;;;;;;5041978;28;20040;-89
2023/10/09 00:11:58;;;;;;;8.68;4.95;;;15.40;75.40;;;;;;5041722;28;20146;-90
2023/10/09 00:14:30;;;;;;;7.38;4.85;;;15.40;75.40;;;;;;5058270;28;20120;-90
2023/10/09 00:17:31;;;;;;;8.57;4.78;;;15.40;75.40;;;;;;5035513;28;20106;-90
2023/10/09 00:19:49;;;;;;;7.80;4.25;;;15.50;75.50;;;;;;5035566;28;20080;-90
2023/10/09 00:25:00;;;;;;;8.02;4.63;;;15.50;75.60;;;;;;5037224;28;20045;-90
2023/10/09 00:27:31;;;;;;;8.75;4.28;;;15.50;75.50;;;;;;5037743;28;20115;-90
2023/10/09 00:29:59;;;;;;;7.60;3.88;;;15.50;75.60;;;;;;5037922;28;20040;-90
2023/10/09 00:32:26;;;;;;;7.45;4.97;;;15.50;75.60;;;;;;5049840;28;20132;-90
2023/10/09 00:34:53;;;;;;;7.35;4.53;;;15.50;75.60;;;;;;5055721;28;20063;-90
2023/10/09 00:37:26;;;;;;;7.93;4.43;;;15.50;75.60;;;;;;5037083;28;20049;-91
2023/10/09 00:39:56;;;;;;;11.53;5.53;;;15.50;75.60;;;;;;5037260;28;20075;-90
2023/10/09 00:42:29;;;;;;;9.07;5.32;;;15.60;75.80;;;;;;5041342;28;20043;-90
2023/10/09 00:44:56;;;;;;;7.55;4.47;;;15.50;75.70;;;;;;5047313;28;20041;-90
2023/10/09 00:47:22;;;;;;;8.73;4.55;;;15.50;75.70;;;;;;5057197;28;20028;-90
2023/10/09 00:50:08;;;;;;;9.82;5.63;;;15.50;75.60;;;;;;5040741;28;20083;-90
2023/10/09 00:52:40;;;;;;;9.05;5.05;;;15.50;75.70;;;;;;5039904;28;20102;-90
2023/10/09 00:55:13;;;;;;;8.52;5.75;;;15.50;75.70;;;;;;5031193;28;20052;-90
2023/10/09 00:57:56;;;;;;;9.32;5.60;;;15.50;75.80;;;;;;5069889;28;20044;-90
2023/10/09 01:06:16;;;;;;;9.38;5.50;;;15.50;75.90;;;;;;5056634;28;20050;-89
2023/10/09 01:11:18;;;;;;;10.35;6.88;;;15.50;76.00;;;;;;5036042;28;20041;-90
2023/10/09 01:16:17;;;;;;;7.35;5.10;;;15.40;76.10;;;;;;5044170;28;20045;-90
2023/10/09 01:18:43;;;;;;;9.93;6.05;;;15.50;76.20;;;;;;5019908;28;20067;-90
2023/10/09 01:21:14;;;;;;;9.43;5.90;;;15.50;76.20;;;;;;5036622;28;20037;-90
2023/10/09 01:24:04;;;;;;;14.20;7.93;;;15.40;76.10;;;;;;5054299;28;20041;-89
2023/10/09 01:26:44;;;;;;;9.80;5.72;;;15.50;76.20;;;;;;5019977;28;20124;-90
2023/10/09 01:29:14;;;;;;;13.60;8.30;;;15.50;76.20;;;;;;5036575;28;20041;-90
2023/10/09 01:31:46;;;;;;;9.70;6.45;;;15.50;76.40;;;;;;5043252;28;20036;-89
2023/10/09 01:34:12;;;;;;;10.75;7.15;;;15.50;76.50;;;;;;5039728;28;20041;-90
2023/10/09 01:36:39;;;;;;;12.77;8.57;;;15.50;76.50;;;;;;5055576;28;20407;-90
2023/10/09 01:39:25;;;;;;;12.32;8.82;;;15.50;76.60;;;;;;5039336;28;20037;-89
2023/10/09 01:42:00;;;;;;;15.40;9.43;;;16.10;77.10;;;;;;5032803;28;20043;-90
2023/10/09 01:44:30;;;;;;;13.23;8.98;;;15.50;76.80;;;;;;5019688;28;20041;-91
2023/10/09 01:46:58;;;;;;;24.25;15.52;;;15.50;77.00;;;;;;5019618;28;20044;-90
2023/10/09 01:49:31;;;;;;;22.70;14.45;;;15.50;77.30;;;;;;5035932;28;20047;-90
2023/10/09 01:52:03;;;;;;;28.03;17.53;;;15.50;77.70;;;;;;5023198;28;20375;-90
2023/10/09 01:54:38;;;;;;;18.58;12.52;;;15.50;77.90;;;;;;5036424;28;20389;-90
2023/10/09 01:57:14;;;;;;;23.70;15.55;;;15.50;78.20;;;;;;5036555;28;20040;-89
2023/10/09 01:59:43;;;;;;;18.05;12.45;;;15.50;78.40;;;;;;5055231;28;20081;-88
2023/10/09 02:02:25;;;;;;;19.15;14.10;;;15.50;78.50;;;;;;5033600;28;20048;-88
2023/10/09 02:05:07;;;;;;;25.77;17.40;;;15.50;78.50;;;;;;5024848;28;20043;-88
2023/10/09 02:07:44;;;;;;;16.60;12.27;;;15.50;78.70;;;;;;5032131;28;20029;-89
2023/10/09 02:13:09;;;;;;;18.73;12.77;;;15.50;78.70;;;;;;5039022;28;20602;-89
2023/10/09 02:18:17;;;;;;;22.35;15.68;;;15.50;78.80;;;;;;5035672;28;20444;-89
2023/10/09 02:20:47;;;;;;;19.83;14.45;;;15.50;78.90;;;;;;5068150;28;20101;-89
2023/10/09 02:23:13;;;;;;;19.83;13.00;;;15.50;78.90;;;;;;5051278;28;20451;-89
2023/10/09 02:25:43;;;;;;;24.30;17.27;;;15.60;79.00;;;;;;5025879;28;20045;-89
2023/10/09 02:28:17;;;;;;;18.40;13.30;;;15.50;79.20;;;;;;5026668;28;20037;-88
2023/10/09 02:30:47;;;;;;;24.17;17.60;;;15.50;79.20;;;;;;5018819;28;20025;-88
2023/10/09 02:33:27;;;;;;;23.95;15.82;;;15.50;79.40;;;;;;5036122;28;20512;-88
2023/10/09 02:35:59;;;;;;;24.35;17.45;;;15.50;79.90;;;;;;5051228;28;20041;-89
2023/10/09 02:38:26;;;;;;;23.80;17.20;;;15.50;79.50;;;;;;5038412;28;20048;-89
2023/10/09 02:43:40;;;;;;;23.13;16.98;;;15.50;79.70;;;;;;5035155;28;20037;-89
2023/10/09 02:48:45;;;;;;;22.90;16.02;;;15.50;79.90;;;;;;5046319;28;20036;-88
2023/10/09 02:51:21;;;;;;;28.05;18.77;;;15.50;79.90;;;;;;5020614;28;20116;-89
2023/10/09 02:53:49;;;;;;;20.83;14.93;;;15.50;80.00;;;;;;5070461;28;20045;-89
2023/10/09 02:56:17;;;;;;;25.10;17.88;;;15.50;80.00;;;;;;5052864;28;20094;-89
2023/10/09 02:58:43;;;;;;;20.55;14.60;;;15.50;80.00;;;;;;5067754;28;20048;-88
2023/10/09 03:01:15;;;;;;;23.00;16.33;;;15.50;80.00;;;;;;5024730;28;20033;-89
2023/10/09 03:03:46;;;;;;;21.73;15.65;;;15.50;80.00;;;;;;5037523;28;20064;-88
2023/10/09 03:06:19;;;;;;;25.73;18.77;;;15.60;80.00;;;;;;5054606;28;20094;-88
2023/10/09 03:08:47;;;;;;;25.23;17.00;;;15.50;80.00;;;;;;5037627;28;20037;-88
2023/10/09 03:11:13;;;;;;;25.42;18.38;;;15.50;80.10;;;;;;5051714;28;20529;-89
2023/10/09 03:13:44;;;;;;;27.75;19.58;;;15.50;80.20;;;;;;5049157;28;20041;-88
2023/10/09 03:16:19;;;;;;;34.22;23.95;;;15.50;80.30;;;;;;5025088;28;20028;-89
2023/10/09 03:18:51;;;;;;;27.95;21.20;;;16.20;80.90;;;;;;5037568;28;20029;-89
2023/10/09 03:21:18;;;;;;;36.63;25.13;;;15.60;80.70;;;;;;5053808;28;20036;-89
2023/10/09 03:23:51;;;;;;;29.73;20.13;;;16.20;81.50;;;;;;5058066;28;20504;-90
2023/10/09 03:26:17;;;;;;;39.92;25.58;;;15.60;81.50;;;;;;5057699;28;20489;-90
2023/10/09 03:28:47;;;;;;;34.25;23.55;;;15.60;81.70;;;;;;5022577;28;20060;-90
2023/10/09 03:31:13;;;;;;;32.08;22.38;;;15.60;81.90;;;;;;5022251;28;20048;-90
2023/10/09 03:33:40;;;;;;;35.42;22.73;;;15.60;81.90;;;;;;5054252;28;20116;-90
2023/10/09 03:36:09;;;;;;;29.13;20.25;;;15.60;82.00;;;;;;5070088;28;20041;-90
2023/10/09 03:38:38;;;;;;;36.30;23.65;;;15.60;82.10;;;;;;5038591;28;20508;-90
2023/10/09 03:41:05;;;;;;;32.58;22.35;;;15.60;82.30;;;;;;5043527;28;20045;-90
2023/10/09 03:43:39;;;;;;;24.48;16.95;;;15.60;82.30;;;;;;5043392;28;20040;-90
2023/10/09 03:46:33;;;;;;;32.70;21.77;;;15.60;82.40;;;;;;5041727;28;20037;-89
2023/10/09 03:49:02;;;;;;;36.10;23.23;;;15.60;82.50;;;;;;5041704;28;20044;-90
2023/10/09 03:51:29;;;;;;;33.58;22.98;;;15.60;82.50;;;;;;5057737;28;20048;-90
2023/10/09 03:53:55;;;;;;;32.95;20.40;;;15.70;82.80;;;;;;5057234;28;20073;-90
2023/10/09 03:56:21;;;;;;;38.45;25.02;;;15.70;82.80;;;;;;5041880;28;20098;-89
2023/10/09 03:58:53;;;;;;;38.08;25.30;;;16.00;83.20;;;;;;5042031;28;20043;-89
2023/10/09 04:01:28;;;;;;;34.97;23.20;;;16.00;83.40;;;;;;5041116;28;20086;-90
2023/10/09 04:04:00;;;;;;;28.20;20.65;;;15.80;83.50;;;;;;5057181;28;20072;-89
2023/10/09 04:06:32;;;;;;;31.08;20.70;;;15.80;83.70;;;;;;5041150;28;20079;-90
2023/10/09 04:12:20;;;;;;;34.55;22.75;;;15.80;83.90;;;;;;5039806;28;20679;-90
2023/10/09 04:14:57;;;;;;;33.00;22.23;;;15.80;84.10;;;;;;5021526;28;20033;-90
2023/10/09 04:22:50;;;;;;;35.38;21.98;;;15.90;84.30;;;;;;5037434;28;20049;-90
2023/10/09 04:25:27;;;;;;;31.88;20.85;;;15.90;84.40;;;;;;5037909;28;20481;-89
2023/10/09 04:27:59;;;;;;;36.50;23.33;;;16.00;84.60;;;;;;5038004;28;20435;-89
2023/10/09 04:30:26;;;;;;;29.38;20.67;;;16.00;84.60;;;;;;5020369;28;20041;-90
2023/10/09 04:32:55;;;;;;;30.25;19.95;;;16.00;84.70;;;;;;5053689;28;20095;-89
2023/10/09 04:35:24;;;;;;;32.35;23.38;;;16.10;84.80;;;;;;5038191;28;20040;-89
2023/10/09 04:38:03;;;;;;;34.38;23.52;;;16.10;84.80;;;;;;5056568;28;20063;-89
2023/10/09 04:40:48;;;;;;;31.42;20.75;;;16.00;84.90;;;;;;5031990;28;20033;-89
2023/10/09 04:43:20;;;;;;;33.42;22.30;;;16.60;85.30;;;;;;5034435;28;20037;-88
2023/10/09 04:48:52;;;;;;;31.55;19.75;;;16.10;85.20;;;;;;4996300;28;20046;-89
2023/10/09 04:51:21;;;;;;;31.98;20.73;;;16.10;85.10;;;;;;4996214;28;20046;-89
2023/10/09 04:53:50;;;;;;;26.92;19.08;;;16.10;85.30;;;;;;4996277;28;20049;-90
2023/10/09 04:56:16;;;;;;;25.58;17.90;;;16.50;85.60;;;;;;4996662;28;20050;-90
2023/10/09 04:58:44;;;;;;;27.08;18.42;;;16.20;85.30;;;;;;4992797;28;20054;-90
2023/10/09 05:01:13;;;;;;;30.88;19.20;;;16.20;85.20;;;;;;4997432;28;20495;-89
2023/10/09 05:06:20;;;;;;;26.25;18.27;;;16.20;85.20;;;;;;4986511;28;20407;-88
2023/10/09 05:08:47;;;;;;;29.85;18.52;;;16.30;85.20;;;;;;4959965;28;20638;-88
2023/10/09 05:14:11;;;;;;;24.25;17.83;;;16.30;85.30;;;;;;4995352;28;20049;-89
2023/10/09 05:16:37;;;;;;;23.55;16.25;;;16.30;85.10;;;;;;4995569;28;20532;-89
2023/10/09 05:19:06;;;;;;;21.40;15.25;;;16.30;85.10;;;;;;4996426;28;20398;-88
2023/10/09 05:21:47;;;;;;;25.98;16.25;;;16.30;85.10;;;;;;4996094;28;20064;-89
2023/10/09 05:32:27;;;;;;;24.05;15.13;;;16.40;85.10;;;;;;5041684;28;20283;-87
2023/10/09 05:37:32;;;;;;;21.95;14.80;;;16.40;85.00;;;;;;5035297;28;20096;-88
2023/10/09 06:03:48;;;;;;;19.92;11.13;;;16.50;84.70;;;;;;5052595;28;20075;-89
2023/10/09 06:07:22;;;;;;;15.70;9.75;;;16.50;84.70;;;;;;5037716;28;20083;-89
2023/10/09 06:11:39;;;;;;;14.25;10.25;;;16.50;84.60;;;;;;5034811;28;20045;-89
2023/10/09 06:24:23;;;;;;;14.57;8.93;;;16.50;84.60;;;;;;5034916;28;20488;-89
2023/10/09 06:27:12;;;;;;;12.40;7.60;;;16.60;84.70;;;;;;5035583;28;20098;-89
2023/10/09 06:29:50;;;;;;;15.95;8.52;;;16.50;84.60;;;;;;5034914;28;20041;-89
2023/10/09 06:34:56;;;;;;;13.30;7.78;;;16.60;84.60;;;;;;5054486;28;20448;-88
2023/10/09 06:42:43;;;;;;;15.30;8.13;;;16.60;84.70;;;;;;5035114;28;20049;-88
2023/10/09 06:47:55;;;;;;;18.75;8.70;;;16.60;84.90;;;;;;5054403;28;20325;-89
2023/10/09 06:53:19;;;;;;;15.05;7.28;;;16.60;85.10;;;;;;5038072;28;20112;-89
2023/10/09 06:55:51;;;;;;;15.45;8.05;;;16.60;85.10;;;;;;5033700;28;20049;-88
2023/10/09 06:58:27;;;;;;;15.70;7.57;;;16.70;85.20;;;;;;5050199;28;20049;-88
2023/10/09 07:03:51;;;;;;;11.63;7.05;;;16.70;85.30;;;;;;5038904;28;20045;-89
2023/10/09 07:06:24;;;;;;;16.63;7.40;;;16.70;85.30;;;;;;5017639;28;20033;-88
2023/10/09 07:17:01;;;;;;;16.98;8.73;;;16.80;85.50;;;;;;5034788;28;20056;-91
2023/10/09 07:22:03;;;;;;;14.98;8.32;;;16.80;85.70;;;;;;5034957;28;20109;-90
2023/10/09 07:24:43;;;;;;;14.48;7.85;;;16.80;85.80;;;;;;5018030;28;20037;-91
2023/10/09 07:27:15;;;;;;;15.23;7.63;;;17.30;86.20;;;;;;5021673;28;20480;-90
2023/10/09 07:29:47;;;;;;;13.88;6.65;;;16.80;85.90;;;;;;5038062;28;20481;-92
2023/10/09 07:32:22;;;;;;;12.02;6.65;;;16.90;85.90;;;;;;5038258;28;20062;-90
2023/10/09 07:34:54;;;;;;;13.63;7.10;;;17.00;86.00;;;;;;5037974;28;20119;-91
2023/10/09 07:37:38;;;;;;;12.27;7.43;;;17.00;85.90;;;;;;5054499;28;20059;-91
2023/10/09 07:40:07;;;;;;;14.35;7.25;;;17.00;85.70;;;;;;5037459;28;20049;-91
2023/10/09 07:42:43;;;;;;;14.07;7.15;;;17.00;85.70;;;;;;5053442;28;20040;-91
2023/10/09 07:50:40;;;;;;;13.90;6.22;;;17.00;85.90;;;;;;5054474;28;20041;-92
2023/10/09 07:53:25;;;;;;;12.95;7.03;;;17.00;85.80;;;;;;5037354;28;20045;-92
2023/10/09 07:55:55;;;;;;;11.05;6.22;;;17.10;85.80;;;;;;5022882;28;20052;-92
2023/10/09 07:58:28;;;;;;;12.57;6.53;;;17.10;85.80;;;;;;5034305;28;20048;-91
2023/10/09 08:03:24;;;;;;;12.65;7.18;;;17.20;85.80;;;;;;5040357;28;20105;-91
2023/10/09 08:05:52;;;;;;;12.40;7.00;;;17.70;86.10;;;;;;5037878;28;20055;-92
2023/10/09 08:08:39;;;;;;;11.63;6.30;;;17.40;85.90;;;;;;5028659;28;20046;-92
2023/10/09 08:14:00;;;;;;;14.95;7.82;;;17.30;85.60;;;;;;5038339;28;20109;-90
2023/10/09 08:16:36;;;;;;;14.77;8.18;;;17.30;85.70;;;;;;5021749;28;20051;-90
2023/10/09 08:19:20;;;;;;;19.52;8.30;;;17.30;85.80;;;;;;5022772;28;20067;-90
2023/10/09 08:22:16;;;;;;;;;;;17.30;86.00;;;;;;5040121;28;20049;-90
2023/10/09 08:24:40;;;;;;;14.60;8.27;;;17.30;85.80;;;;;;5038138;28;19943;-91
2023/10/09 08:30:11;;;;;;;13.10;7.93;;;17.40;86.30;;;;;;5056297;28;20104;-93
2023/10/09 08:32:40;;;;;;;14.88;7.72;;;17.40;86.30;;;;;;5053871;28;20191;-93
2023/10/09 08:35:29;;;;;;;20.38;8.35;;;17.40;86.20;;;;;;5020925;28;20101;-91
2023/10/09 08:37:52;;;;;;;19.75;8.13;;;17.50;86.20;;;;;;5036004;28;20060;-90
2023/10/09 08:40:27;;;;;;;15.20;8.05;;;17.50;86.00;;;;;;5036701;28;20048;-92
2023/10/09 08:42:57;;;;;;;15.52;7.75;;;17.60;86.00;;;;;;5020843;28;20044;-91
2023/10/09 08:45:24;;;;;;;19.23;7.82;;;17.50;85.80;;;;;;5019953;28;20064;-91
2023/10/09 08:47:54;;;;;;;16.73;8.15;;;17.60;85.70;;;;;;5028903;28;20043;-91
2023/10/09 08:50:20;;;;;;;14.85;7.28;;;17.60;85.60;;;;;;5055702;28;20048;-91
2023/10/09 08:52:49;;;;;;;18.25;8.30;;;17.60;85.60;;;;;;5038266;28;20048;-89
2023/10/09 08:55:18;;;;;;;16.15;7.95;;;17.60;85.70;;;;;;5054078;28;20029;-88
2023/10/09 08:57:46;;;;;;;15.25;8.45;;;17.60;85.60;;;;;;5055146;28;20082;-89
2023/10/09 09:00:23;;;;;;;17.42;7.75;;;17.70;85.60;;;;;;5035431;28;20036;-89
2023/10/09 09:03:00;;;;;;;20.05;8.60;;;17.60;85.50;;;;;;5053986;28;20102;-88
2023/10/09 09:05:28;;;;;;;19.42;8.05;;;17.60;85.40;;;;;;5031199;28;20033;-87
2023/10/09 09:07:59;;;;;;;19.85;8.00;;;17.70;85.40;;;;;;5053043;28;20033;-88
2023/10/09 09:10:35;;;;;;;13.32;7.05;;;17.60;85.70;;;;;;5042358;28;20079;-87
2023/10/09 09:13:04;;;;;;;17.73;7.93;;;17.70;85.20;;;;;;5039450;28;20067;-88
2023/10/09 09:15:30;;;;;;;13.25;7.00;;;17.70;85.20;;;;;;5057086;28;20051;-90
2023/10/09 09:18:10;;;;;;;14.48;7.70;;;17.70;85.10;;;;;;5056229;28;20040;-90
2023/10/09 09:20:45;;;;;;;14.30;7.25;;;17.70;85.00;;;;;;5049630;28;20044;-88
2023/10/09 09:23:12;;;;;;;13.25;7.57;;;17.70;85.00;;;;;;5054742;28;20076;-89
2023/10/09 09:25:44;;;;;;;17.38;7.25;;;17.70;85.00;;;;;;5039864;28;20143;-88
2023/10/09 09:28:12;;;;;;;13.70;6.95;;;17.70;85.00;;;;;;5039757;28;20055;-91
2023/10/09 09:30:40;;;;;;;16.52;7.13;;;17.70;85.10;;;;;;5036886;28;20075;-89
2023/10/09 09:35:59;;;;;;;16.42;7.60;;;17.80;85.00;;;;;;5055872;28;20398;-87
2023/10/09 09:38:28;;;;;;;17.55;7.65;;;17.80;85.10;;;;;;5056030;28;20056;-88
2023/10/09 09:40:57;;;;;;;13.05;6.97;;;17.80;85.20;;;;;;5019717;28;20045;-89
2023/10/09 09:43:25;;;;;;;16.52;7.00;;;17.80;85.10;;;;;;5019471;28;20037;-89
2023/10/09 09:45:53;;;;;;;15.93;7.38;;;17.80;85.00;;;;;;5019668;28;20121;-89
2023/10/09 09:48:18;;;;;;;16.48;7.93;;;17.90;85.00;;;;;;5020702;28;20037;-89
2023/10/09 09:50:45;;;;;;;11.75;6.57;;;17.80;84.90;;;;;;5036594;28;20031;-89
2023/10/09 09:53:17;;;;;;;11.25;5.93;;;17.90;84.80;;;;;;5045289;28;20093;-89
2023/10/09 09:56:04;;;;;;;13.73;6.50;;;17.90;84.80;;;;;;5046018;28;20093;-89
2023/10/09 09:58:42;;;;;;;11.85;6.53;;;17.90;84.60;;;;;;5055547;28;20484;-89
2023/10/09 10:01:24;;;;;;;14.82;6.38;;;17.90;84.70;;;;;;5055677;28;20136;-89
2023/10/09 10:03:59;;;;;;;11.88;6.32;;;18.00;84.60;;;;;;5036912;28;20032;-89
2023/10/09 10:06:28;;;;;;;11.93;5.85;;;18.00;85.00;;;;;;5049438;28;20428;-90
2023/10/09 10:08:54;;;;;;;15.80;7.50;;;18.00;84.50;;;;;;5039890;28;20243;-91
2023/10/09 10:11:41;;;;;;;12.57;6.35;;;18.00;84.60;;;;;;5027283;28;20039;-89
2023/10/09 10:14:11;;;;;;;16.88;7.45;;;18.10;84.30;;;;;;5047475;28;20045;-89
2023/10/09 10:17:11;;;;;;;14.52;7.38;;;18.10;84.40;;;;;;5052033;28;20044;-91
2023/10/09 10:20:25;;;;;;;18.42;7.47;;;18.10;84.10;;;;;;5052328;28;20163;-89
2023/10/09 10:23:16;;;;;;;13.23;5.93;;;18.20;84.10;;;;;;5069052;28;20033;-89
2023/10/09 10:25:42;;;;;;;17.73;7.10;;;18.20;84.30;;;;;;5008859;28;20091;-90
2023/10/09 10:31:04;;;;;;;13.13;6.68;;;18.30;84.40;;;;;;5055124;28;20048;-90
2023/10/09 10:33:54;;;;;;;14.00;6.65;;;18.30;84.30;;;;;;5055038;28;20091;-91
2023/10/09 10:36:26;;;;;;;16.70;7.28;;;18.40;84.00;;;;;;5038967;28;20149;-91
2023/10/09 10:39:19;;;;;;;14.90;6.82;;;18.50;84.00;;;;;;5055328;28;20059;-90
2023/10/09 10:41:55;;;;;;;13.23;5.93;;;18.50;83.80;;;;;;5039282;28;20075;-91
2023/10/09 10:44:41;;;;;;;20.63;6.95;;;18.50;83.70;;;;;;5055806;28;20047;-93
2023/10/09 10:49:58;;;;;;;13.82;6.45;;;18.60;83.10;;;;;;5056150;28;20048;-90
2023/10/09 10:52:44;;;;;;;14.77;8.18;;;18.60;83.00;;;;;;5039613;28;20041;-89
2023/10/09 10:55:36;;;;;;;18.77;7.35;;;18.60;82.80;;;;;;5046986;28;20099;-90
2023/10/09 10:58:14;;;;;;;13.57;6.90;;;18.60;82.70;;;;;;5035899;28;20072;-91
2023/10/09 11:06:37;;;;;;;15.68;7.13;;;18.70;83.10;;;;;;5014489;28;20052;-92
2023/10/09 11:09:21;;;;;;;16.17;7.10;;;18.70;83.00;;;;;;5019103;28;20033;-91
2023/10/09 11:11:55;;;;;;;16.23;7.65;;;18.70;83.00;;;;;;5035484;28;20069;-91
2023/10/09 11:14:24;;;;;;;14.57;6.72;;;18.80;82.90;;;;;;5036639;28;20132;-92
2023/10/09 11:16:50;;;;;;;13.48;7.07;;;18.70;82.80;;;;;;5034914;28;20073;-90
2023/10/09 11:19:31;;;;;;;14.18;6.20;;;18.80;82.80;;;;;;5034922;28;20501;-91
2023/10/09 11:22:17;;;;;;;13.98;6.35;;;18.80;82.70;;;;;;5035270;28;20056;-91
2023/10/09 11:24:58;;;;;;;14.90;6.47;;;18.80;82.80;;;;;;5036970;28;20044;-93
2023/10/09 11:27:29;;;;;;;15.90;6.22;;;18.80;83.00;;;;;;5038827;28;20106;-92
2023/10/09 11:29:55;;;;;;;14.80;6.47;;;18.90;83.30;;;;;;5038115;28;20045;-88
2023/10/09 11:32:25;;;;;;;13.57;6.68;;;19.00;83.70;;;;;;5054105;28;20063;-88
2023/10/09 11:35:10;;;;;;;14.60;6.47;;;19.10;83.40;;;;;;5055006;28;20409;-91
2023/10/09 11:37:42;;;;;;;14.98;5.90;;;19.20;83.00;;;;;;5054321;28;20064;-91
2023/10/09 11:40:47;;;;;;;9.68;5.70;;;19.20;82.90;;;;;;5037975;28;20036;-91
2023/10/09 11:43:14;;;;;;;10.35;5.55;;;19.30;82.60;;;;;;5039874;28;20051;-90
2023/10/09 11:45:39;;;;;;;10.77;5.43;;;19.30;82.20;;;;;;5058183;28;20044;-92
2023/10/09 11:48:33;;;;;;;11.40;5.00;;;19.30;81.70;;;;;;5037309;28;20147;-91
2023/10/09 11:55:53;;;;;;;13.65;4.93;;;19.40;81.30;;;;;;5045590;28;20084;-90
2023/10/09 11:58:22;;;;;;;10.13;4.70;;;19.40;80.90;;;;;;5022013;28;20135;-89
2023/10/09 12:01:05;;;;;;;12.70;5.03;;;19.40;80.80;;;;;;5038445;28;20049;-89
2023/10/09 12:03:32;;;;;;;8.70;4.43;;;19.40;80.60;;;;;;5038488;28;20045;-91
2023/10/09 12:06:04;;;;;;;7.72;3.95;;;19.40;80.60;;;;;;5022342;28;20469;-90
2023/10/09 12:08:30;;;;;;;6.80;3.90;;;19.40;80.50;;;;;;5038685;28;20086;-90
2023/10/09 12:10:56;;;;;;;8.65;2.97;;;19.40;80.40;;;;;;5041665;28;20042;-88
2023/10/09 12:13:25;;;;;;;6.63;3.28;;;19.40;80.30;;;;;;5058139;28;20127;-90
2023/10/09 12:15:52;;;;;;;9.77;3.67;;;19.40;80.10;;;;;;5040834;28;20484;-89
2023/10/09 12:18:19;;;;;;;8.50;3.15;;;19.40;80.20;;;;;;5041291;28;20040;-91
2023/10/09 12:20:50;;;;;;;6.80;3.33;;;19.40;80.20;;;;;;5058028;28;20074;-90
2023/10/09 12:23:18;;;;;;;7.32;3.00;;;19.40;80.10;;;;;;5033879;28;20528;-90
2023/10/09 12:25:47;;;;;;;7.05;3.42;;;19.40;80.10;;;;;;5048536;28;20044;-90
2023/10/09 12:28:13;;;;;;;6.43;2.80;;;19.30;80.00;;;;;;5050857;28;20044;-90
2023/10/09 12:30:41;;;;;;;7.15;3.00;;;19.30;79.80;;;;;;5037337;28;20477;-89
2023/10/09 12:33:10;;;;;;;8.10;3.47;;;19.30;79.60;;;;;;5037565;28;20049;-89
2023/10/09 12:35:39;;;;;;;7.05;2.95;;;19.30;79.60;;;;;;5021269;28;20121;-90
2023/10/09 12:38:10;;;;;;;7.13;2.90;;;19.30;79.60;;;;;;5037238;28;20052;-89
2023/10/09 12:40:38;;;;;;;10.65;3.45;;;19.30;79.50;;;;;;5021266;28;20135;-90
2023/10/09 12:43:03;;;;;;;7.32;3.40;;;19.30;79.50;;;;;;5038333;28;20120;-89
2023/10/09 12:45:35;;;;;;;10.70;3.28;;;19.30;79.50;;;;;;5057265;28;20036;-90
2023/10/09 12:48:03;;;;;;;7.93;3.60;;;19.30;79.40;;;;;;5057132;28;20392;-89
2023/10/09 12:50:34;;;;;;;7.55;3.22;;;19.20;79.30;;;;;;5040771;28;20047;-90
2023/10/09 12:53:06;;;;;;;8.27;3.38;;;19.30;79.50;;;;;;5056219;28;20044;-90
2023/10/09 12:55:40;;;;;;;9.18;3.63;;;19.20;79.70;;;;;;5055988;28;20040;-89
2023/10/09 12:58:07;;;;;;;9.77;3.30;;;19.30;79.90;;;;;;5040399;28;20062;-89
2023/10/09 13:00:48;;;;;;;8.38;3.22;;;19.30;80.10;;;;;;5040237;28;20040;-90
2023/10/09 13:03:18;;;;;;;7.72;2.60;;;19.30;80.10;;;;;;5057058;28;20047;-88
2023/10/09 13:05:58;;;;;;;7.22;2.42;;;19.30;80.20;;;;;;5057380;28;20040;-89
2023/10/09 13:08:34;;;;;;;4.45;2.40;;;19.30;79.90;;;;;;5057823;28;20123;-90
2023/10/09 13:11:10;;;;;;;5.25;2.22;;;19.30;79.70;;;;;;5040466;28;20037;-90
2023/10/09 13:13:40;;;;;;;5.90;2.15;;;19.30;79.60;;;;;;5056834;28;20045;-90
2023/10/09 13:16:24;;;;;;;6.32;2.33;;;19.30;79.50;;;;;;5040099;28;20509;-90
2023/10/09 13:18:50;;;;;;;;;;;19.40;79.30;;;;;;5057416;28;20105;-90
2023/10/09 13:21:20;;;;;;;5.85;2.65;;;19.30;79.30;;;;;;5057299;28;20364;-90
2023/10/09 13:23:49;;;;;;;5.95;2.63;;;19.40;79.50;;;;;;5040131;28;20040;-92
2023/10/09 13:26:21;;;;;;;8.65;2.55;;;19.40;79.50;;;;;;5057233;28;20041;-90
2023/10/09 13:28:49;;;;;;;11.68;2.88;;;19.40;79.50;;;;;;5040143;28;20044;-91
2023/10/09 13:31:16;;;;;;;8.90;3.17;;;19.40;79.80;;;;;;5057304;28;20099;-91
2023/10/09 13:33:43;;;;;;;8.30;2.75;;;19.40;79.20;;;;;;5058080;28;20435;-92
2023/10/09 13:36:26;;;;;;;8.07;3.20;;;19.40;79.20;;;;;;5041982;28;20215;-89
2023/10/09 13:38:55;;;;;;;9.32;2.90;;;19.40;79.00;;;;;;5059488;28;20066;-92
2023/10/09 13:41:30;;;;;;;6.93;3.17;;;19.40;79.10;;;;;;5039621;28;20041;-92
2023/10/09 13:43:56;;;;;;;9.02;3.25;;;19.40;79.20;;;;;;5039981;28;20041;-91
2023/10/09 13:46:23;;;;;;;9.57;3.08;;;19.40;79.30;;;;;;5040176;28;20036;-92
2023/10/09 13:48:49;;;;;;;9.13;3.38;;;19.40;79.30;;;;;;5056603;28;20046;-91
2023/10/09 13:51:18;;;;;;;9.75;3.90;;;19.40;79.40;;;;;;5056475;28;20092;-91
2023/10/09 13:53:45;;;;;;;6.28;3.13;;;19.40;79.30;;;;;;5031540;28;20090;-92
2023/10/09 13:56:19;;;;;;;8.88;3.42;;;19.40;79.20;;;;;;5055744;28;20128;-90
2023/10/09 13:58:54;;;;;;;12.43;4.15;;;19.40;79.20;;;;;;5056590;28;20373;-96
2023/10/09 14:01:26;;;;;;;9.55;3.60;;;19.40;79.20;;;;;;5056717;28;20049;-93
2023/10/09 14:03:59;;;;;;;10.48;3.63;;;19.40;79.20;;;;;;5056575;28;20045;-92
2023/10/09 14:06:32;;;;;;;8.38;4.03;;;19.40;79.30;;;;;;5039401;28;20115;-95
2023/10/09 14:09:05;;;;;;;13.73;4.03;;;19.40;79.40;;;;;;5040417;28;20105;-91
2023/10/09 14:11:37;;;;;;;7.35;3.85;;;19.40;79.40;;;;;;5040588;28;20074;-92
2023/10/09 14:14:12;;;;;;;9.43;3.83;;;19.30;79.30;;;;;;5055995;28;20089;-92
2023/10/09 14:16:42;;;;;;;12.10;4.30;;;19.30;79.30;;;;;;5056145;28;20080;-92
2023/10/09 14:19:13;;;;;;;11.70;4.50;;;19.30;79.30;;;;;;5039933;28;20040;-93
2023/10/09 14:21:40;;;;;;;8.88;3.55;;;19.30;79.40;;;;;;5039907;28;20039;-91
2023/10/09 14:24:15;;;;;;;9.20;3.72;;;19.30;79.30;;;;;;5037410;28;20036;-90
2023/10/09 14:26:42;;;;;;;8.05;3.40;;;19.30;79.40;;;;;;5038923;28;20032;-91
2023/10/09 14:29:07;;;;;;;9.70;3.50;;;19.30;79.50;;;;;;5039442;28;20032;-92
2023/10/09 14:31:38;;;;;;;10.15;3.60;;;19.30;79.60;;;;;;5056022;28;20033;-93
2023/10/09 14:34:04;;;;;;;10.07;4.22;;;19.30;79.60;;;;;;5056113;28;20084;-90
2023/10/09 14:36:33;;;;;;;7.70;3.47;;;19.30;79.60;;;;;;5055512;28;20056;-90
2023/10/09 14:39:00;;;;;;;8.80;3.75;;;19.30;79.40;;;;;;5055133;28;20045;-92
2023/10/09 14:41:27;;;;;;;8.38;3.40;;;19.30;79.40;;;;;;5055922;28;20044;-92
2023/10/09 14:43:54;;;;;;;9.02;3.22;;;19.30;79.50;;;;;;5038894;28;20040;-92
2023/10/09 14:46:26;;;;;;;8.40;3.50;;;19.30;79.60;;;;;;5039432;28;20068;-93
2023/10/09 14:48:55;;;;;;;12.73;3.85;;;19.30;79.50;;;;;;5038988;28;20044;-91
2023/10/09 14:51:26;;;;;;;8.65;3.58;;;19.30;79.40;;;;;;5039292;28;20047;-89
2023/10/09 14:53:58;;;;;;;9.40;3.40;;;19.30;79.50;;;;;;5025817;28;20051;-91
2023/10/09 14:56:30;;;;;;;8.73;3.13;;;19.30;79.60;;;;;;5019568;28;20036;-90
2023/10/09 14:58:59;;;;;;;11.38;4.38;;;19.30;79.60;;;;;;5035727;28;20044;-92
2023/10/09 15:01:30;;;;;;;7.63;4.35;;;19.20;79.60;;;;;;5020159;28;20041;-89
2023/10/09 15:03:57;;;;;;;13.18;3.35;;;19.20;79.70;;;;;;5048831;28;20080;-92
2023/10/09 15:06:33;;;;;;;7.85;3.50;;;19.20;79.60;;;;;;5055629;28;20082;-93
2023/10/09 15:09:07;;;;;;;10.73;4.10;;;19.30;79.60;;;;;;5038256;28;20037;-91
2023/10/09 15:11:33;;;;;;;9.90;3.22;;;19.30;79.60;;;;;;5038512;28;20087;-91
2023/10/09 15:13:59;;;;;;;8.18;3.58;;;19.20;79.60;;;;;;5054993;28;20041;-90
2023/10/09 15:16:30;;;;;;;7.45;2.90;;;19.20;79.40;;;;;;5054835;28;20044;-92
2023/10/09 15:19:02;;;;;;;6.50;2.72;;;19.20;79.40;;;;;;5038158;28;20131;-91
2023/10/09 15:21:32;;;;;;;9.65;2.90;;;19.10;79.30;;;;;;5039239;28;20047;-94
2023/10/09 15:23:58;;;;;;;5.68;2.78;;;19.10;79.30;;;;;;5022287;28;20076;-90
2023/10/09 15:26:24;;;;;;;7.00;2.95;;;19.20;79.50;;;;;;5035607;28;20037;-92
2023/10/09 15:28:53;;;;;;;9.55;3.75;;;19.20;79.40;;;;;;5018827;28;20037;-92
2023/10/09 15:31:21;;;;;;;9.60;3.83;;;19.10;79.40;;;;;;5035224;28;20079;-92
2023/10/09 15:33:49;;;;;;;6.20;3.00;;;19.10;79.50;;;;;;5035133;28;20080;-91